Kilkenny, Ireland

5:25 PM GMT on February 14, 2016 (GMT +0000)
Hillcrest, CITYLIMITS | | Change Station
CLOSE
Current Station
Personal Weather Station
Location: Kilkenny, KILKENNY
Elevation: 305 ft
Nearby Weather Stations

Elev 305 ft 52.67 °N, 7.28 °W | Updated 5 seconds ago

Scattered Clouds
Scattered Clouds
38.7 °F
Feels Like 39 °F
N
1.3
Wind Variable Wind from NW
Gusts 2.5 mph

Today
High -- | Low -- °F
--% Chance of Precip.
Yesterday
High -- | Low -- °F
Precip. -- in
Pressure 29.83 in
Visibility 6.2 miles
Clouds Few 2500 ft
Scattered Clouds 4500 ft
Windchill 39 °F
Dew Point 32 °F
Humidity 75%
Rainfall 0.05 in
Snow Depth Not available.
7:48 AM 5:38 PM
Waxing Crescent, 43% visible
METAR EIWF 141700Z 02008KT 350V060 9999 FEW025 SCT045 04/00 Q1010 R03/2/////
Pressure 29.83 in
Visibility 6.2 miles
Clouds Few 2500 ft
Scattered Clouds 4500 ft
Windchill 39 °F
Dew Point 32 °F
Humidity 75%
Rainfall 0.05 in
Snow Depth Not available.
7:48 AM 5:38 PM
Waxing Crescent, 43% visible
METAR EIWF 141700Z 02008KT 350V060 9999 FEW025 SCT045 04/00 Q1010 R03/2/////

10-Day Weather Forecast

Almanac

Astronomy

Feb. 14, 2016 Rise Set
Actual Time
Civil Twilight
Nautical Twilight
Astronomical Twilight
Moon
Length of Visible Light
Length of Day
Tomorrow will be .
, % of the Moon is Illuminated

Today's Extremes

Country Highs Country Lows

Community

WunderPhotos

Upload Photos

1,892,856 photos uploaded!

WunderBlog® & News

Nearby

Air Quality

  Air Quality AQ Index Pollutant
Not available.

Snow Depth

Station Depth Elevation

Earthquake Activity

City Distance Mag. Time & Date
Minimum magnitude displayed is 2.5.

Coastal Water Temperatures

Place Temperature

Stations

Nearby Weather Stations

Station Location Temp. Windchill Dew Point Humidity Wind Precip. Elev Updated Type